createdAt,value
2018-07-09T00:00:41.059Z,21.34
2018-07-09T00:01:41.053Z,21.38
2018-07-09T00:02:41.058Z,21.35
2018-07-09T00:03:41.049Z,21.37
2018-07-09T00:04:40.791Z,21.38
2018-07-09T00:05:41.047Z,21.37
2018-07-09T00:06:41.045Z,21.5
2018-07-09T00:07:41.038Z,21.38
2018-07-09T00:08:41.089Z,21.43
2018-07-09T00:09:41.039Z,21.37
2018-07-09T00:10:40.782Z,21.35
2018-07-09T00:11:41.031Z,21.37
2018-07-09T00:12:41.030Z,21.34
2018-07-09T00:13:41.031Z,21.38
2018-07-09T00:14:40.771Z,21.35
2018-07-09T00:15:40.775Z,21.43
2018-07-09T00:16:40.780Z,21.35
2018-07-09T00:17:40.773Z,21.38
2018-07-09T00:18:41.023Z,21.38
2018-07-09T00:19:40.769Z,21.37
2018-07-09T00:20:40.758Z,21.38
2018-07-09T00:21:41.010Z,21.43
2018-07-09T00:22:41.009Z,21.43
2018-07-09T00:23:40.767Z,21.37
2018-07-09T00:24:41.001Z,21.38
2018-07-09T00:25:41.001Z,21.4
2018-07-09T00:26:41.014Z,21.4
2018-07-09T00:27:41.010Z,21.35
2018-07-09T00:28:40.743Z,21.31
2018-07-09T00:29:40.990Z,21.38
2018-07-09T00:30:40.991Z,21.35
2018-07-09T00:31:40.986Z,21.34
2018-07-09T00:32:41.001Z,21.29
2018-07-09T00:33:40.735Z,21.38
2018-07-09T00:34:40.731Z,21.35
2018-07-09T00:35:40.989Z,21.37
2018-07-09T00:36:40.978Z,21.24
2018-07-09T00:37:40.977Z,21.37
2018-07-09T00:38:40.723Z,21.38
2018-07-09T00:39:40.719Z,21.22
2018-07-09T00:40:40.715Z,21.29
2018-07-09T00:41:40.716Z,21.28
2018-07-09T00:42:40.968Z,21.34
2018-07-09T00:43:40.973Z,21.22
2018-07-09T00:44:40.966Z,21.17
2018-07-09T00:45:40.959Z,21.22
2018-07-09T00:46:40.701Z,21.17
2018-07-09T00:47:41.003Z,21.17
2018-07-09T00:48:40.949Z,21.24
2018-07-09T00:49:40.953Z,21.13
2018-07-09T00:50:40.699Z,21.17
2018-07-09T00:51:40.960Z,21.09
2018-07-09T00:52:40.948Z,21.07
2018-07-09T00:53:40.941Z,21.01
2018-07-09T00:54:40.942Z,20.99
2018-07-09T00:55:40.687Z,20.98
2018-07-09T00:56:40.687Z,20.89
2018-07-09T00:57:40.939Z,20.85
2018-07-09T00:58:40.951Z,20.82
2018-07-09T00:59:40.929Z,20.88
2018-07-09T01:00:40.928Z,20.66
2018-07-09T01:01:40.928Z,20.69
2018-07-09T01:02:40.927Z,20.57
2018-07-09T01:03:40.667Z,20.66
2018-07-09T01:04:40.915Z,20.54
2018-07-09T01:05:40.916Z,20.52
2018-07-09T01:06:40.912Z,20.5
2018-07-09T01:07:40.910Z,20.32
2018-07-09T01:08:40.904Z,20.36
2018-07-09T01:09:40.653Z,20.33
2018-07-09T01:10:40.917Z,20.28
2018-07-09T01:11:40.660Z,20.28
2018-07-09T01:12:40.646Z,20.29
2018-07-09T01:13:40.891Z,20.28
2018-07-09T01:14:40.889Z,20.16
2018-07-09T01:15:40.891Z,20.2
2018-07-09T01:16:40.884Z,20.01
2018-07-09T01:17:40.883Z,20.05
2018-07-09T01:18:40.883Z,20.06
2018-07-09T01:19:40.882Z,19.91
2018-07-09T01:20:40.622Z,20.03
2018-07-09T01:21:40.882Z,19.94
2018-07-09T01:22:40.877Z,19.94
2018-07-09T01:23:40.868Z,19.92
2018-07-09T01:24:40.869Z,19.92
2018-07-09T01:25:40.860Z,19.99
2018-07-09T01:26:40.610Z,19.96
2018-07-09T01:27:40.602Z,19.94
2018-07-09T01:28:40.854Z,19.92
2018-07-09T01:29:40.856Z,19.96
2018-07-09T01:30:40.896Z,19.88
2018-07-09T01:31:40.842Z,19.87
2018-07-09T01:32:40.841Z,19.96
2018-07-09T01:33:40.853Z,19.98
2018-07-09T01:34:40.836Z,19.92
2018-07-09T01:35:40.844Z,19.8
2018-07-09T01:36:40.581Z,19.94
2018-07-09T01:37:40.830Z,19.95
2018-07-09T01:38:40.835Z,19.91
2018-07-09T01:39:40.821Z,19.88
2018-07-09T01:40:40.836Z,19.83
2018-07-09T01:41:40.568Z,19.78
2018-07-09T01:42:40.811Z,19.83
2018-07-09T01:43:40.810Z,19.71
2018-07-09T01:44:40.816Z,19.73
2018-07-09T01:45:40.807Z,19.74
2018-07-09T01:46:40.805Z,19.71
2018-07-09T01:47:40.805Z,19.66
2018-07-09T01:48:40.796Z,19.59
2018-07-09T01:49:40.796Z,19.51
2018-07-09T01:50:40.788Z,19.5
2018-07-09T01:51:41.040Z,19.51
2018-07-09T01:52:40.544Z,19.47
2018-07-09T01:53:40.530Z,19.39
2018-07-09T01:54:40.776Z,19.33
2018-07-09T01:55:40.799Z,19.33
2018-07-09T01:56:40.522Z,19.43
2018-07-09T01:57:40.773Z,19.29
2018-07-09T01:58:40.770Z,19.26
2018-07-09T01:59:40.772Z,19.19
2018-07-09T02:00:40.759Z,19.18
2018-07-09T02:01:40.761Z,19.16
2018-07-09T02:02:40.752Z,19.11
2018-07-09T02:03:40.751Z,19.11
2018-07-09T02:04:40.751Z,19.07
2018-07-09T02:05:40.742Z,19.02
2018-07-09T02:06:40.750Z,19.06
2018-07-09T02:07:40.736Z,19
2018-07-09T02:08:40.732Z,19.06
2018-07-09T02:09:40.730Z,19.04
2018-07-09T02:10:40.744Z,19.04
2018-07-09T02:11:40.725Z,18.95
2018-07-09T02:12:40.720Z,18.92
2018-07-09T02:13:40.724Z,18.87
2018-07-09T02:14:40.717Z,18.85
2018-07-09T02:15:40.714Z,18.98
2018-07-09T02:16:40.716Z,18.95
2018-07-09T02:17:40.707Z,18.94
2018-07-09T02:18:40.706Z,19.02
2018-07-09T02:19:40.455Z,19.02
2018-07-09T02:20:40.944Z,18.99
2018-07-09T02:21:40.697Z,18.95
2018-07-09T02:22:40.687Z,18.99
2018-07-09T02:23:40.684Z,19.06
2018-07-09T02:24:40.691Z,19.04
2018-07-09T02:25:40.683Z,19.02
2018-07-09T02:26:40.694Z,19.06
2018-07-09T02:27:40.673Z,19.04
2018-07-09T02:28:40.417Z,19
2018-07-09T02:29:40.664Z,19.04
2018-07-09T02:30:40.687Z,19.04
2018-07-09T02:31:40.669Z,19.02
2018-07-09T02:32:40.667Z,18.99
2018-07-09T02:33:40.664Z,18.99
2018-07-09T02:34:40.680Z,19.11
2018-07-09T02:35:40.650Z,19
2018-07-09T02:36:40.647Z,19.04
2018-07-09T02:37:40.665Z,18.92
2018-07-09T02:38:40.653Z,18.95
2018-07-09T02:39:40.640Z,18.94
2018-07-09T02:40:40.636Z,18.92
2018-07-09T02:41:40.630Z,18.82
2018-07-09T02:42:40.630Z,18.78
2018-07-09T02:43:40.626Z,18.7
2018-07-09T02:44:40.615Z,18.67
2018-07-09T02:45:40.360Z,18.66
2018-07-09T02:46:40.615Z,18.66
2018-07-09T02:47:40.619Z,18.57
2018-07-09T02:48:40.354Z,18.54
2018-07-09T02:49:40.604Z,18.54
2018-07-09T02:50:40.600Z,18.51
2018-07-09T02:51:40.593Z,18.51
2018-07-09T02:52:40.595Z,18.39
2018-07-09T02:53:40.839Z,18.37
2018-07-09T02:54:40.590Z,18.39
2018-07-09T02:55:40.597Z,18.37
2018-07-09T02:56:40.334Z,18.36
2018-07-09T02:57:40.351Z,18.29
2018-07-09T02:58:40.576Z,18.29
2018-07-09T02:59:40.569Z,18.26
2018-07-09T03:00:40.067Z,18.33
2018-07-09T03:01:40.572Z,18.21
2018-07-09T03:02:40.569Z,18.18
2018-07-09T03:03:40.557Z,18.23
2018-07-09T03:04:40.295Z,18.2
2018-07-09T03:05:40.294Z,18.17
2018-07-09T03:06:40.575Z,18.17
2018-07-09T03:07:40.593Z,18.14
2018-07-09T03:08:40.537Z,18.05
2018-07-09T03:09:40.535Z,18.14
2018-07-09T03:10:40.278Z,18.03
2018-07-09T03:11:40.530Z,18.15
2018-07-09T03:12:40.282Z,18
2018-07-09T03:13:40.270Z,17.99
2018-07-09T03:14:40.516Z,18.02
2018-07-09T03:15:40.268Z,18.05
2018-07-09T03:16:40.521Z,18.07
2018-07-09T03:17:40.506Z,18.03
2018-07-09T03:18:40.512Z,18.02
2018-07-09T03:19:40.500Z,18.03
2018-07-09T03:20:40.502Z,17.99
2018-07-09T03:21:40.241Z,18.02
2018-07-09T03:22:40.233Z,18.03
2018-07-09T03:23:40.229Z,18.02
2018-07-09T03:24:40.485Z,18
2018-07-09T03:25:40.473Z,17.99
2018-07-09T03:26:40.492Z,17.99
2018-07-09T03:27:40.475Z,18.02
2018-07-09T03:28:40.468Z,18.15
2018-07-09T03:29:40.558Z,18.02
2018-07-09T03:30:40.202Z,18.08
2018-07-09T03:31:40.455Z,18.14
2018-07-09T03:32:40.199Z,18.11
2018-07-09T03:33:40.443Z,18.18
2018-07-09T03:34:40.441Z,18.23
2018-07-09T03:35:40.439Z,18.27
2018-07-09T03:36:40.437Z,18.41
2018-07-09T03:37:40.427Z,18.45
2018-07-09T03:38:40.427Z,18.63
2018-07-09T03:39:40.424Z,18.81
2018-07-09T03:40:40.168Z,18.9
2018-07-09T03:41:40.421Z,19
2018-07-09T03:42:40.424Z,19.14
2018-07-09T03:43:40.420Z,19.37
2018-07-09T03:44:40.414Z,19.44
2018-07-09T03:45:40.402Z,19.73
2018-07-09T03:46:40.403Z,19.92
2018-07-09T03:47:40.396Z,20.1
2018-07-09T03:48:40.144Z,20.23
2018-07-09T03:49:40.393Z,20.48
2018-07-09T03:50:40.140Z,20.67
2018-07-09T03:51:40.388Z,20.85
2018-07-09T03:52:40.398Z,21.09
2018-07-09T03:53:40.381Z,21.29
2018-07-09T03:54:40.132Z,21.53
2018-07-09T03:55:40.384Z,21.64
2018-07-09T03:56:40.385Z,21.94
2018-07-09T03:57:40.138Z,22.21
2018-07-09T03:58:40.375Z,22.39
2018-07-09T03:59:40.373Z,22.57
2018-07-09T04:00:40.376Z,22.8
2018-07-09T04:01:40.374Z,23.05
2018-07-09T04:02:40.377Z,23.17
2018-07-09T04:03:40.370Z,23.47
2018-07-09T04:04:40.118Z,23.66
2018-07-09T04:05:40.116Z,23.95
2018-07-09T04:06:40.771Z,24.13
2018-07-09T04:07:42.919Z,24.31
2018-07-09T04:08:40.374Z,24.53
2018-07-09T04:09:40.380Z,24.77
2018-07-09T04:10:40.371Z,24.95
2018-07-09T04:11:40.121Z,25.18
2018-07-09T04:12:40.374Z,25.3
2018-07-09T04:13:40.384Z,25.57
2018-07-09T04:14:40.169Z,25.65
2018-07-09T04:15:40.385Z,25.72
2018-07-09T04:16:40.386Z,25.77
2018-07-09T04:17:40.380Z,26.02
2018-07-09T04:18:40.384Z,26.28
2018-07-09T04:19:40.388Z,26.51
2018-07-09T04:20:40.390Z,26.7
2018-07-09T04:21:40.141Z,26.87
2018-07-09T04:22:40.395Z,26.95
2018-07-09T04:23:40.399Z,27.24
2018-07-09T04:24:40.403Z,27.47
2018-07-09T04:25:40.471Z,27.72
2018-07-09T04:26:40.414Z,27.84
2018-07-09T04:27:40.666Z,28.09
2018-07-09T04:28:40.419Z,28.22
2018-07-09T04:29:40.429Z,28.48
2018-07-09T04:30:40.433Z,28.59
2018-07-09T04:31:40.498Z,28.73
2018-07-09T04:32:40.444Z,28.95
2018-07-09T04:33:40.196Z,29.08
2018-07-09T04:34:40.466Z,29.27
2018-07-09T04:35:40.465Z,29.45
2018-07-09T04:36:40.467Z,29.61
2018-07-09T04:37:40.538Z,29.8
2018-07-09T04:38:40.478Z,29.9
2018-07-09T04:39:40.482Z,30.16
2018-07-09T04:40:40.489Z,30.29
2018-07-09T04:41:40.488Z,30.53
2018-07-09T04:42:40.505Z,30.62
2018-07-09T04:43:40.250Z,30.86
2018-07-09T04:44:40.526Z,31.01
2018-07-09T04:45:40.267Z,31.21
2018-07-09T04:46:40.524Z,31.39
2018-07-09T04:47:40.531Z,31.53
2018-07-09T04:48:40.539Z,31.7
2018-07-09T04:49:40.558Z,31.72
2018-07-09T04:50:40.576Z,32
2018-07-09T04:51:40.564Z,32.07
2018-07-09T04:52:40.570Z,32.19
2018-07-09T04:53:40.885Z,32.38
2018-07-09T04:54:40.343Z,32.57
2018-07-09T04:55:40.596Z,32.78
2018-07-09T04:56:40.604Z,32.93
2018-07-09T04:57:40.617Z,33.11
2018-07-09T04:58:40.878Z,33.16
2018-07-09T04:59:40.637Z,33.26
2018-07-09T05:00:40.392Z,33.44
2018-07-09T05:01:40.650Z,33.47
2018-07-09T05:02:40.659Z,33.66
2018-07-09T05:03:40.669Z,33.78
2018-07-09T05:04:40.677Z,33.84
2018-07-09T05:05:40.772Z,33.97
2018-07-09T05:06:40.700Z,34.08
2018-07-09T05:07:40.709Z,34.27
2018-07-09T05:08:40.722Z,34.4
2018-07-09T05:09:40.725Z,34.54
2018-07-09T05:10:40.741Z,34.73
2018-07-09T05:11:40.497Z,34.73
2018-07-09T05:12:40.762Z,34.65
2018-07-09T05:13:40.781Z,34.7
2018-07-09T05:14:40.777Z,34.75
2018-07-09T05:15:40.801Z,34.92
2018-07-09T05:16:40.799Z,35.07
2018-07-09T05:17:40.806Z,35.19
2018-07-09T05:18:40.820Z,35.23
2018-07-09T05:19:40.582Z,35.26
2018-07-09T05:20:40.646Z,35.26
2018-07-09T05:21:40.599Z,35.23
2018-07-09T05:22:40.862Z,35.15
2018-07-09T05:23:40.632Z,35.11
2018-07-09T05:24:40.890Z,35.06
2018-07-09T05:25:40.894Z,35.21
2018-07-09T05:26:40.904Z,35.23
2018-07-09T05:27:40.915Z,35.4
2018-07-09T05:28:40.928Z,35.41
2018-07-09T05:29:40.944Z,35.26
2018-07-09T05:30:40.958Z,35.15
2018-07-09T05:31:40.963Z,34.97
2018-07-09T05:32:40.990Z,34.94
2018-07-09T05:33:40.738Z,34.88
2018-07-09T05:34:40.743Z,34.87
2018-07-09T05:35:41.014Z,34.97
2018-07-09T05:36:41.024Z,35.22
2018-07-09T05:37:41.072Z,35.4
2018-07-09T05:38:41.046Z,35.55
2018-07-09T05:39:41.055Z,35.7
2018-07-09T05:40:40.814Z,35.9
2018-07-09T05:41:41.082Z,36.05
2018-07-09T05:42:40.838Z,36.32
2018-07-09T05:43:40.848Z,36.38
2018-07-09T05:44:40.859Z,36.57
2018-07-09T05:45:40.877Z,36.69
2018-07-09T05:46:41.139Z,36.9
2018-07-09T05:47:41.166Z,37.07
2018-07-09T05:48:41.168Z,37.17
2018-07-09T05:49:41.173Z,37.32
2018-07-09T05:50:41.211Z,37.39
2018-07-09T05:51:41.627Z,37.4
2018-07-09T05:52:41.215Z,37.49
2018-07-09T05:53:40.973Z,37.46
2018-07-09T05:54:41.237Z,37.57
2018-07-09T05:55:41.258Z,37.67
2018-07-09T05:56:41.267Z,37.67
2018-07-09T05:57:41.277Z,37.51
2018-07-09T05:58:41.294Z,37.51
2018-07-09T05:59:41.307Z,37.44
2018-07-09T06:00:41.568Z,37.57
2018-07-09T06:01:41.081Z,37.56
2018-07-09T06:02:41.353Z,37.67
2018-07-09T06:03:41.365Z,37.78
2018-07-09T06:04:41.375Z,38.06
2018-07-09T06:05:41.508Z,38.16
2018-07-09T06:06:41.401Z,38.3
2018-07-09T06:07:41.418Z,38.41
2018-07-09T06:08:41.432Z,38.44
2018-07-09T06:09:41.192Z,38.49
2018-07-09T06:10:41.209Z,38.52
2018-07-09T06:11:41.223Z,38.53
2018-07-09T06:12:41.485Z,38.44
2018-07-09T06:13:41.849Z,38.46
2018-07-09T06:14:41.513Z,38.28
2018-07-09T06:15:41.534Z,38.11
2018-07-09T06:16:41.549Z,37.86
2018-07-09T06:17:41.576Z,37.51
2018-07-09T06:18:41.316Z,37.27
2018-07-09T06:19:41.722Z,37.03
2018-07-09T06:20:41.598Z,36.98
2018-07-09T06:21:41.613Z,36.8
2018-07-09T06:22:41.373Z,36.81
2018-07-09T06:23:41.636Z,36.62
2018-07-09T06:24:41.649Z,36.68
2018-07-09T06:25:41.693Z,36.69
2018-07-09T06:26:41.689Z,36.53
2018-07-09T06:27:41.746Z,36.29
2018-07-09T06:28:41.708Z,35.99
2018-07-09T06:29:41.469Z,35.96
2018-07-09T06:30:41.737Z,35.9
2018-07-09T06:31:41.953Z,36.07
2018-07-09T06:32:41.755Z,36.2
2018-07-09T06:33:41.515Z,36.25
2018-07-09T06:34:41.790Z,36.32
2018-07-09T06:35:41.791Z,36.35
2018-07-09T06:36:41.805Z,36.37
2018-07-09T06:37:41.823Z,36.2
2018-07-09T06:38:41.828Z,36.22
2018-07-09T06:39:41.848Z,36.31
2018-07-09T06:40:41.882Z,36.49
2018-07-09T06:41:41.871Z,36.6
2018-07-09T06:42:41.630Z,36.65
2018-07-09T06:43:41.920Z,36.76
2018-07-09T06:44:42.002Z,36.93
2018-07-09T06:45:41.926Z,37.06
2018-07-09T06:46:41.937Z,37.17
2018-07-09T06:47:41.948Z,37.44
2018-07-09T06:48:41.710Z,37.46
2018-07-09T06:49:41.985Z,37.43
2018-07-09T06:50:41.752Z,37.51
2018-07-09T06:51:42.019Z,37.47
2018-07-09T06:52:42.021Z,37.43
2018-07-09T06:53:42.035Z,37.51
2018-07-09T06:54:42.049Z,37.43
2018-07-09T06:55:42.063Z,37.32
2018-07-09T06:56:42.084Z,37.17
2018-07-09T06:57:42.092Z,37
2018-07-09T06:58:41.866Z,37.12
2018-07-09T06:59:41.873Z,37.15
2018-07-09T07:00:41.896Z,37.37
2018-07-09T07:01:42.154Z,37.57
2018-07-09T07:02:42.211Z,37.5
2018-07-09T07:03:42.178Z,37.47
2018-07-09T07:04:41.941Z,37.56
2018-07-09T07:05:42.206Z,37.56
2018-07-09T07:06:41.976Z,37.51
2018-07-09T07:07:41.980Z,37.25
2018-07-09T07:08:42.424Z,37.12
2018-07-09T07:09:42.268Z,37.21
2018-07-09T07:10:42.282Z,37.29
2018-07-09T07:11:42.294Z,37.4
2018-07-09T07:12:42.308Z,37.49
2018-07-09T07:13:42.315Z,37.78
2018-07-09T07:14:42.331Z,37.88
2018-07-09T07:15:42.347Z,37.94
2018-07-09T07:16:42.364Z,38.13
2018-07-09T07:17:42.380Z,38.26
2018-07-09T07:18:42.136Z,38.47
2018-07-09T07:19:42.149Z,38.88
2018-07-09T07:20:42.427Z,39.32
2018-07-09T07:21:42.437Z,39.55
2018-07-09T07:22:42.404Z,39.52
2018-07-09T07:23:42.208Z,39.45
2018-07-09T07:24:42.491Z,39.14
2018-07-09T07:25:42.492Z,38.96
2018-07-09T07:26:42.619Z,38.61
2018-07-09T07:27:42.519Z,38.25
2018-07-09T07:28:42.290Z,37.93
2018-07-09T07:29:42.547Z,37.34
2018-07-09T07:30:42.313Z,36.64
2018-07-09T07:31:42.586Z,36.41
2018-07-09T07:32:42.356Z,36.16
2018-07-09T07:33:42.352Z,35.94
2018-07-09T07:34:42.688Z,35.74
2018-07-09T07:35:42.661Z,35.8
2018-07-09T07:36:42.653Z,35.71
2018-07-09T07:37:42.678Z,35.66
2018-07-09T07:38:42.679Z,35.92
2018-07-09T07:39:42.708Z,36.15
2018-07-09T07:40:42.459Z,36.44
2018-07-09T07:41:42.470Z,36.72
2018-07-09T07:42:42.715Z,36.98
2018-07-09T07:43:42.734Z,37.09
2018-07-09T07:44:42.740Z,37.12
2018-07-09T07:45:42.755Z,37
2018-07-09T07:46:42.517Z,37.21
2018-07-09T07:47:42.539Z,37.47
2018-07-09T07:48:42.543Z,37.78
2018-07-09T07:49:42.821Z,38.04
2018-07-09T07:50:43.297Z,38.04
2018-07-09T07:51:42.587Z,38.12
2018-07-09T07:52:42.643Z,38.26
2018-07-09T07:53:42.892Z,38.38
2018-07-09T07:54:42.666Z,38.5
2018-07-09T07:55:42.913Z,38.59
2018-07-09T07:56:42.930Z,38.65
2018-07-09T07:57:42.680Z,38.68
2018-07-09T07:58:42.967Z,38.69
2018-07-09T07:59:43.008Z,38.49
2018-07-09T08:00:43.011Z,38.5
2018-07-09T08:01:42.999Z,38.56
2018-07-09T08:02:43.015Z,38.72
2018-07-09T08:03:43.036Z,38.78
2018-07-09T08:04:43.047Z,38.75
2018-07-09T08:05:43.066Z,38.93
2018-07-09T08:06:43.086Z,38.87
2018-07-09T08:07:43.104Z,38.37
2018-07-09T08:08:43.138Z,38.03
2018-07-09T08:09:43.418Z,37.6
2018-07-09T08:10:43.154Z,37.2
2018-07-09T08:11:53.808Z,36.8
2018-07-09T08:13:34.112Z,36.34
2018-07-09T08:14:32.941Z,36.17
2018-07-09T08:15:32.748Z,36.03
2018-07-09T08:16:32.712Z,36.01
2018-07-09T08:17:32.978Z,36.03
2018-07-09T08:18:32.994Z,36.17
2018-07-09T08:19:33.047Z,36.39
2018-07-09T08:20:32.797Z,36.68
2018-07-09T08:21:33.064Z,36.81
2018-07-09T08:22:33.054Z,37
2018-07-09T08:23:33.083Z,37.27
2018-07-09T08:24:33.172Z,37.31
2018-07-09T08:25:33.237Z,37.5
2018-07-09T08:26:33.119Z,37.5
2018-07-09T08:27:32.877Z,37.31
2018-07-09T08:28:32.905Z,37.34
2018-07-09T08:29:33.187Z,37.27
2018-07-09T08:30:33.191Z,37.29
2018-07-09T08:31:33.275Z,37.29
2018-07-09T08:32:33.000Z,37.24
2018-07-09T08:33:33.262Z,37.29
2018-07-09T08:34:33.260Z,37.17
2018-07-09T08:35:33.261Z,37.15
2018-07-09T08:36:33.285Z,37.02
2018-07-09T08:37:33.067Z,37
2018-07-09T08:38:33.323Z,37.17
2018-07-09T08:39:33.370Z,37.22
2018-07-09T08:40:33.337Z,37.4
2018-07-09T08:41:33.348Z,37.34
2018-07-09T08:42:33.126Z,37.44
2018-07-09T08:43:33.382Z,37.46
2018-07-09T08:44:33.410Z,37.39
2018-07-09T08:45:33.436Z,37.31
2018-07-09T08:46:33.449Z,37.32
2018-07-09T08:47:33.542Z,37.31
2018-07-09T08:48:33.465Z,37.24
2018-07-09T08:49:33.227Z,37.27
2018-07-09T08:50:33.255Z,37
2018-07-09T08:51:33.525Z,36.83
2018-07-09T08:52:33.551Z,36.69
2018-07-09T08:53:33.554Z,36.57
2018-07-09T08:54:33.311Z,36.37
2018-07-09T08:55:33.334Z,35.85
2018-07-09T08:56:33.337Z,35.48
2018-07-09T08:57:33.369Z,35.25
2018-07-09T08:58:33.630Z,35
2018-07-09T08:59:33.651Z,34.87
2018-07-09T09:00:33.650Z,34.47
2018-07-09T09:01:33.665Z,34.17
2018-07-09T09:02:33.457Z,34
2018-07-09T09:03:33.186Z,33.71
2018-07-09T09:04:33.762Z,33.42
2018-07-09T09:05:33.466Z,33.18
2018-07-09T09:06:33.746Z,32.96
2018-07-09T09:07:33.776Z,32.79
2018-07-09T09:08:33.508Z,32.6
2018-07-09T09:09:33.799Z,32.3
2018-07-09T09:10:33.910Z,31.92
2018-07-09T09:11:33.787Z,31.7
2018-07-09T09:12:33.878Z,31.36
2018-07-09T09:13:33.643Z,31.06
2018-07-09T09:14:33.568Z,30.94
2018-07-09T09:15:34.351Z,30.72
2018-07-09T09:16:34.069Z,30.49
2018-07-09T09:17:33.846Z,30.51
2018-07-09T09:18:33.854Z,30.47
2018-07-09T09:19:33.881Z,30.29
2018-07-09T09:20:33.880Z,30.1
2018-07-09T09:21:33.883Z,29.92
2018-07-09T09:22:33.892Z,29.8
2018-07-09T09:23:34.171Z,29.65
2018-07-09T09:24:33.959Z,29.58
2018-07-09T09:25:34.095Z,29.48
2018-07-09T09:26:33.942Z,29.26
2018-07-09T09:27:34.047Z,29.18
2018-07-09T09:28:33.702Z,29.02
2018-07-09T09:29:33.952Z,29.02
2018-07-09T09:30:33.706Z,28.95
2018-07-09T09:31:34.242Z,28.86
2018-07-09T09:32:33.717Z,28.95
2018-07-09T09:33:33.723Z,28.68
2018-07-09T09:34:33.984Z,28.59
2018-07-09T09:35:33.989Z,28.59
2018-07-09T09:36:34.038Z,28.44
2018-07-09T09:37:34.255Z,28.52
2018-07-09T09:38:34.022Z,28.49
2018-07-09T09:39:34.013Z,28.55
2018-07-09T09:40:33.781Z,28.59
2018-07-09T09:41:34.024Z,28.55
2018-07-09T09:42:34.034Z,28.49
2018-07-09T09:43:33.785Z,28.48
2018-07-09T09:44:33.795Z,28.46
2018-07-09T09:45:33.794Z,28.46
2018-07-09T09:46:33.801Z,28.41
2018-07-09T09:47:33.816Z,28.44
2018-07-09T09:48:34.065Z,28.43
2018-07-09T09:49:34.236Z,28.51
2018-07-09T09:50:33.823Z,28.51
2018-07-09T09:51:33.849Z,28.66
2018-07-09T09:52:34.088Z,28.85
2018-07-09T09:53:34.091Z,28.89
2018-07-09T09:54:34.104Z,28.96
2018-07-09T09:55:34.109Z,29.06
2018-07-09T09:56:33.861Z,28.9
2018-07-09T09:57:34.116Z,28.98
2018-07-09T09:58:34.130Z,28.95
2018-07-09T09:59:34.132Z,29.05
2018-07-09T10:00:34.300Z,29.15
2018-07-09T10:01:33.905Z,29.04
2018-07-09T10:02:34.164Z,29.11
2018-07-09T10:03:33.900Z,29.16
2018-07-09T10:04:33.903Z,29.11
2018-07-09T10:05:33.909Z,29.23
2018-07-09T10:06:34.239Z,29.23
2018-07-09T10:07:33.921Z,29.24
2018-07-09T10:08:34.295Z,29.24
2018-07-09T10:09:34.201Z,29.23
2018-07-09T10:10:33.686Z,29.31
2018-07-09T10:11:34.200Z,29.33
2018-07-09T10:12:33.964Z,29.46
2018-07-09T10:13:33.958Z,29.65
2018-07-09T10:14:34.223Z,29.71
2018-07-09T10:15:33.970Z,29.94
2018-07-09T10:16:33.987Z,29.94
2018-07-09T10:17:33.991Z,30.01
2018-07-09T10:18:34.253Z,30.08
2018-07-09T10:19:33.989Z,30
2018-07-09T10:20:33.995Z,30.08
2018-07-09T10:21:34.255Z,30.05
2018-07-09T10:22:34.267Z,30.1
2018-07-09T10:23:34.393Z,30.16
2018-07-09T10:24:34.276Z,30.26
2018-07-09T10:25:34.291Z,30.45
2018-07-09T10:26:34.292Z,30.51
2018-07-09T10:27:34.039Z,30.54
2018-07-09T10:28:34.049Z,30.43
2018-07-09T10:29:34.313Z,30.31
2018-07-09T10:30:34.552Z,30.31
2018-07-09T10:31:34.340Z,30.35
2018-07-09T10:32:34.097Z,30.27
2018-07-09T10:33:34.093Z,30.26
2018-07-09T10:34:34.336Z,30.29
2018-07-09T10:35:34.376Z,30.17
2018-07-09T10:36:34.350Z,30.13
2018-07-09T10:37:34.359Z,30.16
2018-07-09T10:38:34.362Z,30.1
2018-07-09T10:39:34.163Z,30.05
2018-07-09T10:40:34.372Z,30.01
2018-07-09T10:41:34.127Z,30.07
2018-07-09T10:42:34.392Z,30.05
2018-07-09T10:43:34.399Z,29.97
2018-07-09T10:44:34.154Z,29.9
2018-07-09T10:45:34.153Z,29.95
2018-07-09T10:46:34.170Z,30
2018-07-09T10:47:34.425Z,29.92
2018-07-09T10:48:34.424Z,29.85
2018-07-09T10:49:34.185Z,29.74
2018-07-09T10:50:34.438Z,29.73
2018-07-09T10:51:34.538Z,29.68
2018-07-09T10:52:34.445Z,29.65
2018-07-09T10:53:34.468Z,29.43
2018-07-09T10:54:34.458Z,29.23
2018-07-09T10:55:34.466Z,29.16
2018-07-09T10:56:34.474Z,29.04
2018-07-09T10:57:34.224Z,28.9
2018-07-09T10:58:34.234Z,28.92
2018-07-09T10:59:34.500Z,28.78
2018-07-09T11:00:34.494Z,28.66
2018-07-09T11:01:34.506Z,28.52
2018-07-09T11:02:34.514Z,28.43
2018-07-09T11:03:34.538Z,28.51
2018-07-09T11:04:34.519Z,28.39
2018-07-09T11:05:34.534Z,28.33
2018-07-09T11:06:34.024Z,28.36
2018-07-09T11:07:34.543Z,28.19
2018-07-09T11:08:34.552Z,28.09
2018-07-09T11:09:34.650Z,28
2018-07-09T11:10:34.581Z,27.99
2018-07-09T11:11:34.553Z,28.07
2018-07-09T11:12:34.561Z,28.07
2018-07-09T11:13:34.315Z,28.04
2018-07-09T11:14:34.577Z,27.97
2018-07-09T11:15:34.338Z,27.99
2018-07-09T11:16:34.336Z,28
2018-07-09T11:17:34.076Z,28.02
2018-07-09T11:18:34.591Z,27.99
2018-07-09T11:19:34.594Z,27.85
2018-07-09T11:20:34.605Z,27.9
2018-07-09T11:21:34.698Z,27.81
2018-07-09T11:22:34.354Z,27.69
2018-07-09T11:23:34.609Z,27.79
2018-07-09T11:24:34.611Z,27.72
2018-07-09T11:25:34.627Z,27.66
2018-07-09T11:26:34.633Z,27.65
2018-07-09T11:27:34.624Z,27.72
2018-07-09T11:28:34.374Z,27.57
2018-07-09T11:29:34.644Z,27.47
2018-07-09T11:30:34.131Z,27.43
2018-07-09T11:31:34.644Z,27.44
2018-07-09T11:32:34.643Z,27.36
2018-07-09T11:33:34.651Z,27.25
2018-07-09T11:34:34.658Z,27.27
2018-07-09T11:35:34.660Z,27.25
2018-07-09T11:36:35.049Z,27.21
2018-07-09T11:37:34.409Z,27.12
2018-07-09T11:38:34.666Z,27.1
2018-07-09T11:39:34.417Z,27.18
2018-07-09T11:40:34.677Z,27.17
2018-07-09T11:41:34.704Z,27.27
2018-07-09T11:42:34.684Z,27.32
2018-07-09T11:43:34.681Z,27.25
2018-07-09T11:44:34.690Z,27.28
2018-07-09T11:45:34.691Z,27.17
2018-07-09T11:46:34.697Z,27.13
2018-07-09T11:47:34.711Z,27.19
2018-07-09T11:48:34.741Z,27.04
2018-07-09T11:49:34.706Z,26.99
2018-07-09T11:50:34.713Z,26.89
2018-07-09T11:51:34.717Z,26.87
2018-07-09T11:52:34.721Z,26.82
2018-07-09T11:53:34.723Z,26.84
2018-07-09T11:54:34.750Z,26.77
2018-07-09T11:55:34.744Z,26.63
2018-07-09T11:56:34.748Z,26.55
2018-07-09T11:57:34.790Z,26.44
2018-07-09T11:58:34.834Z,26.37
2018-07-09T11:59:34.773Z,26.37
2018-07-09T12:00:34.745Z,26.36
2018-07-09T12:01:34.509Z,26.25
2018-07-09T12:02:34.756Z,26.17
2018-07-09T12:03:34.750Z,26.01
2018-07-09T12:04:34.755Z,26.05
2018-07-09T12:05:34.773Z,26.05
2018-07-09T12:06:34.759Z,26.17
2018-07-09T12:07:34.767Z,26.13
2018-07-09T12:08:34.766Z,26.07
2018-07-09T12:09:34.793Z,26.02
2018-07-09T12:10:34.815Z,26.01
2018-07-09T12:11:34.899Z,26.1
2018-07-09T12:12:34.780Z,26.13
2018-07-09T12:13:34.785Z,26.2
2018-07-09T12:14:34.867Z,26.28
2018-07-09T12:15:34.793Z,26.23
2018-07-09T12:16:34.803Z,26.33
2018-07-09T12:17:34.539Z,26.39
2018-07-09T12:18:34.799Z,26.43
2018-07-09T12:19:34.824Z,26.44
2018-07-09T12:20:34.556Z,26.54
2018-07-09T12:21:34.599Z,26.62
2018-07-09T12:22:34.548Z,26.52
2018-07-09T12:23:34.804Z,26.6
2018-07-09T12:24:34.555Z,26.57
2018-07-09T12:25:34.808Z,26.69
2018-07-09T12:26:34.818Z,26.72
2018-07-09T12:27:34.833Z,26.84
2018-07-09T12:28:34.841Z,26.97
2018-07-09T12:29:34.828Z,27.14
2018-07-09T12:30:34.598Z,27.32
2018-07-09T12:31:34.584Z,27.5
2018-07-09T12:32:34.589Z,27.63
2018-07-09T12:33:34.829Z,27.77
2018-07-09T12:34:34.866Z,27.88
2018-07-09T12:35:34.838Z,28.03
2018-07-09T12:36:35.196Z,28.24
2018-07-09T12:37:34.792Z,28.3
2018-07-09T12:38:34.607Z,28.34
2018-07-09T12:39:34.859Z,28.48
2018-07-09T12:40:34.601Z,28.51
2018-07-09T12:41:34.865Z,28.54
2018-07-09T12:42:34.861Z,28.64
2018-07-09T12:43:34.872Z,28.77
2018-07-09T12:44:34.879Z,28.76
2018-07-09T12:45:34.890Z,28.9
2018-07-09T12:46:34.905Z,29
2018-07-09T12:47:34.929Z,29.16
2018-07-09T12:48:34.885Z,29.36
2018-07-09T12:49:34.923Z,29.51
2018-07-09T12:50:34.891Z,29.63
2018-07-09T12:51:34.924Z,29.7
2018-07-09T12:52:34.908Z,29.82
2018-07-09T12:53:34.653Z,29.8
2018-07-09T12:54:36.207Z,29.82
2018-07-09T12:55:34.923Z,29.83
2018-07-09T12:56:34.919Z,29.71
2018-07-09T12:57:34.922Z,29.8